Terminal Aerodrome Forecast
Issued by NWS

Home | Current Version | Previous Version | Text Only | Print | Product List | Glossary On
Versions: 1 2 3 4 5 6 7 8 9 10 11 12 13 14 15 16 17 18 19 20
000
FTUS43 KGRB 311130
TAFMTW
TAF
KMTW 311130Z 3112/0112 VRB03KT 5SM BR SCT002
      TEMPO 3112/3114 1SM BR BKN002
     FM311400 22005KT 5SM BR FEW005 BKN012
     FM311600 21007KT P6SM BKN025
     FM311800 19005KT P6SM SCT030
     FM010100 20003KT P6SM SKC
      TEMPO 0109/0112 3SM BR=

USA.gov is the U.S. government's official web portal to all federal, state and local government web resources and services.